createdAt,value
2022-12-23T00:02:00.703Z,6.73
2022-12-23T00:04:28.983Z,6.69
2022-12-23T00:06:57.182Z,6.64
2022-12-23T00:09:25.748Z,6.71
2022-12-23T00:12:07.901Z,6.61
2022-12-23T00:14:55.202Z,6.70
2022-12-23T00:17:23.573Z,6.63
2022-12-23T00:19:51.870Z,6.72
2022-12-23T00:22:20.287Z,6.52
2022-12-23T00:24:48.491Z,6.63
2022-12-23T00:27:16.660Z,6.65
2022-12-23T00:29:46.171Z,6.66
2022-12-23T00:32:14.490Z,6.68
2022-12-23T00:34:42.709Z,6.52
2022-12-23T00:37:10.856Z,6.62
2022-12-23T00:40:01.103Z,6.70
2022-12-23T00:42:50.132Z,6.65
2022-12-23T00:45:20.120Z,6.55
2022-12-23T00:48:07.390Z,6.63
2022-12-23T00:50:39.007Z,6.58
2022-12-23T00:53:08.096Z,6.70
2022-12-23T00:55:36.276Z,6.65
2022-12-23T00:58:04.496Z,6.69
2022-12-23T01:00:51.817Z,6.72
2022-12-23T01:03:37.978Z,6.75
2022-12-23T01:06:14.182Z,6.70
2022-12-23T01:08:42.413Z,6.75
2022-12-23T01:11:13.026Z,6.72
2022-12-23T01:13:41.523Z,6.78
2022-12-23T01:16:17.252Z,6.70
2022-12-23T01:18:46.299Z,6.76
2022-12-23T01:21:14.983Z,6.75
2022-12-23T01:23:43.238Z,6.75
2022-12-23T01:26:13.295Z,6.70
2022-12-23T01:28:41.473Z,6.66
2022-12-23T01:31:11.911Z,6.44
2022-12-23T01:33:40.196Z,6.67
2022-12-23T01:36:11.151Z,6.70
2022-12-23T01:38:39.306Z,6.69
2022-12-23T01:41:08.018Z,6.74
2022-12-23T01:43:50.019Z,6.75
2022-12-23T01:46:19.648Z,6.78
2022-12-23T01:48:52.316Z,6.71
2022-12-23T01:51:25.480Z,6.80
2022-12-23T01:53:57.970Z,7.48
2022-12-23T01:56:30.528Z,6.79
2022-12-23T01:59:04.157Z,6.81
2022-12-23T02:01:56.385Z,6.79
2022-12-23T02:04:26.153Z,6.74
2022-12-23T02:07:11.668Z,6.86
2022-12-23T02:09:41.757Z,6.96
2022-12-23T02:12:30.083Z,6.97
2022-12-23T02:15:44.919Z,6.93
2022-12-23T02:18:42.612Z,6.94
2022-12-23T02:21:28.820Z,6.98
2022-12-23T02:24:50.668Z,7.02
2022-12-23T02:27:28.282Z,6.45
2022-12-23T02:30:37.375Z,7.11
2022-12-23T02:33:44.281Z,7.12
2022-12-23T02:36:28.674Z,7.19
2022-12-23T02:39:03.456Z,7.14
2022-12-23T02:41:42.422Z,7.27
2022-12-23T02:44:20.364Z,6.62
2022-12-23T02:46:52.975Z,7.22
2022-12-23T02:49:26.579Z,7.29
2022-12-23T02:51:57.839Z,7.34
2022-12-23T02:54:31.512Z,7.36
2022-12-23T02:57:04.310Z,7.38
2022-12-23T02:59:38.482Z,7.39
2022-12-23T03:02:11.063Z,7.52
2022-12-23T03:04:45.087Z,7.46
2022-12-23T03:07:18.925Z,6.69
2022-12-23T03:09:59.655Z,7.56
2022-12-23T03:12:44.139Z,7.67
2022-12-23T03:15:26.349Z,7.75
2022-12-23T03:18:04.891Z,7.68
2022-12-23T03:20:41.777Z,7.78
2022-12-23T03:23:22.505Z,7.69
2022-12-23T03:25:59.682Z,7.77
2022-12-23T03:28:35.417Z,7.84
2022-12-23T03:31:07.967Z,7.94
2022-12-23T03:33:41.002Z,7.82
2022-12-23T03:36:15.623Z,7.95
2022-12-23T03:38:46.387Z,7.97
2022-12-23T03:41:19.989Z,7.95
2022-12-23T03:43:55.717Z,7.22
2022-12-23T03:46:34.130Z,7.95
2022-12-23T03:49:07.728Z,7.90
2022-12-23T03:51:42.306Z,7.80
2022-12-23T03:54:16.041Z,8.10
2022-12-23T03:56:51.304Z,8.01
2022-12-23T03:59:24.404Z,8.08
2022-12-23T04:02:05.145Z,8.11
2022-12-23T04:04:52.688Z,8.16
2022-12-23T04:07:25.275Z,8.25
2022-12-23T04:09:54.612Z,8.27
2022-12-23T04:12:24.393Z,8.28
2022-12-23T04:14:52.947Z,8.22
2022-12-23T04:17:21.642Z,8.26
2022-12-23T04:19:52.554Z,8.31
2022-12-23T04:22:20.733Z,8.43
2022-12-23T04:24:49.523Z,8.43
2022-12-23T04:27:18.771Z,8.46
2022-12-23T04:29:47.342Z,8.45
2022-12-23T04:32:15.940Z,8.48
2022-12-23T04:34:44.132Z,8.45
2022-12-23T04:37:13.787Z,8.47
2022-12-23T04:39:42.035Z,8.43
2022-12-23T04:42:10.353Z,8.09
2022-12-23T04:44:38.510Z,8.47
2022-12-23T04:47:06.901Z,8.48
2022-12-23T04:49:35.254Z,8.43
2022-12-23T04:52:03.502Z,8.52
2022-12-23T04:54:33.035Z,8.53
2022-12-23T04:57:01.463Z,7.91
2022-12-23T04:59:29.784Z,8.58
2022-12-23T05:01:58.194Z,8.64
2022-12-23T05:04:26.835Z,8.63
2022-12-23T05:07:01.703Z,8.60
2022-12-23T05:09:30.027Z,8.65
2022-12-23T05:11:59.573Z,8.61
2022-12-23T05:14:27.756Z,8.59
2022-12-23T05:17:02.124Z,8.67
2022-12-23T05:19:33.549Z,8.55
2022-12-23T05:22:01.719Z,8.60
2022-12-23T05:24:29.991Z,8.52
2022-12-23T05:27:00.549Z,8.54
2022-12-23T05:29:28.953Z,8.58
2022-12-23T05:31:57.269Z,8.62
2022-12-23T05:34:25.495Z,8.64
2022-12-23T05:36:53.689Z,8.52
2022-12-23T05:39:21.869Z,8.54
2022-12-23T05:41:50.034Z,8.63
2022-12-23T05:44:19.553Z,8.49
2022-12-23T05:46:47.788Z,8.50
2022-12-23T05:49:16.856Z,8.56
2022-12-23T05:51:45.999Z,8.45
2022-12-23T05:54:14.322Z,8.38
2022-12-23T05:56:42.519Z,8.38
2022-12-23T05:59:11.159Z,8.43
2022-12-23T06:01:40.774Z,8.49
2022-12-23T06:04:09.148Z,8.40
2022-12-23T06:06:37.569Z,8.48
2022-12-23T06:09:30.737Z,8.45
2022-12-23T06:11:58.906Z,8.45
2022-12-23T06:14:29.313Z,8.52
2022-12-23T06:16:59.324Z,8.49
2022-12-23T06:19:28.098Z,8.43
2022-12-23T06:21:56.272Z,8.42
2022-12-23T06:24:24.533Z,8.33
2022-12-23T06:26:56.960Z,8.45
2022-12-23T06:29:26.025Z,8.39
2022-12-23T06:31:54.288Z,8.43
2022-12-23T06:34:23.948Z,8.26
2022-12-23T06:36:52.184Z,8.24
2022-12-23T06:39:20.711Z,8.38
2022-12-23T06:41:48.896Z,8.39
2022-12-23T06:44:17.360Z,8.36
2022-12-23T06:46:45.641Z,8.46
2022-12-23T06:49:14.174Z,8.35
2022-12-23T06:51:43.858Z,8.42
2022-12-23T06:54:13.028Z,8.39
2022-12-23T06:56:41.286Z,8.31
2022-12-23T06:59:09.510Z,8.19
2022-12-23T07:01:38.607Z,8.24
2022-12-23T07:04:32.889Z,8.30
2022-12-23T07:07:03.330Z,8.20
2022-12-23T07:09:31.568Z,8.24
2022-12-23T07:11:59.779Z,8.34
2022-12-23T07:14:28.576Z,8.30
2022-12-23T07:16:56.863Z,8.27
2022-12-23T07:19:25.440Z,8.30
2022-12-23T07:21:53.634Z,8.28
2022-12-23T07:24:23.181Z,8.24
2022-12-23T07:26:52.330Z,8.32
2022-12-23T07:29:20.502Z,8.32
2022-12-23T07:31:48.830Z,8.27
2022-12-23T07:34:17.131Z,8.32
2022-12-23T07:36:45.333Z,8.29
2022-12-23T07:39:13.561Z,8.24
2022-12-23T07:41:43.092Z,8.25
2022-12-23T07:44:14.818Z,8.40
2022-12-23T07:46:43.142Z,8.32
2022-12-23T07:49:11.436Z,8.36
2022-12-23T07:51:40.020Z,8.43
2022-12-23T07:54:08.232Z,8.43
2022-12-23T07:56:36.467Z,8.46
2022-12-23T07:59:05.983Z,8.42
2022-12-23T08:01:34.259Z,8.48
2022-12-23T08:04:02.528Z,8.49
2022-12-23T08:06:30.878Z,8.55
2022-12-23T08:08:59.079Z,8.50
2022-12-23T08:11:28.115Z,8.57
2022-12-23T08:13:56.782Z,8.60
2022-12-23T08:16:26.367Z,8.64
2022-12-23T08:18:54.897Z,8.63
2022-12-23T08:21:23.197Z,8.63
2022-12-23T08:23:52.965Z,8.62
2022-12-23T08:26:24.117Z,8.68
2022-12-23T08:28:53.876Z,7.63
2022-12-23T08:31:24.940Z,8.73
2022-12-23T08:33:56.710Z,8.70
2022-12-23T08:36:27.582Z,8.73
2022-12-23T08:38:57.915Z,8.81
2022-12-23T08:41:29.239Z,8.69
2022-12-23T08:43:58.213Z,8.82
2022-12-23T08:46:26.867Z,8.77
2022-12-23T08:48:57.022Z,8.75
2022-12-23T08:51:27.091Z,8.75
2022-12-23T08:54:00.402Z,8.76
2022-12-23T08:56:33.462Z,8.77
2022-12-23T08:59:03.296Z,8.78
2022-12-23T09:01:34.694Z,8.78
2022-12-23T09:04:14.800Z,8.67
2022-12-23T09:07:15.327Z,8.65
2022-12-23T09:09:43.595Z,8.80
2022-12-23T09:12:11.823Z,8.83
2022-12-23T09:14:39.976Z,8.68
2022-12-23T09:17:08.109Z,8.78
2022-12-23T09:19:37.573Z,8.69
2022-12-23T09:22:05.698Z,8.66
2022-12-23T09:24:33.964Z,8.63
2022-12-23T09:29:54.142Z,8.74
2022-12-23T09:32:22.395Z,8.76
2022-12-23T09:34:51.995Z,8.64
2022-12-23T09:37:20.340Z,8.68
2022-12-23T09:39:48.552Z,8.73
2022-12-23T09:42:32.163Z,8.37
2022-12-23T09:45:14.197Z,8.59
2022-12-23T09:47:44.064Z,8.55
2022-12-23T09:50:25.234Z,8.68
2022-12-23T09:53:02.135Z,8.59
2022-12-23T09:55:39.216Z,8.68
2022-12-23T09:58:17.627Z,8.57
2022-12-23T10:01:05.424Z,8.53
2022-12-23T10:03:54.557Z,8.48
2022-12-23T10:06:29.156Z,8.62
2022-12-23T10:09:03.444Z,8.71
2022-12-23T10:11:35.611Z,8.41
2022-12-23T10:14:13.224Z,8.71
2022-12-23T10:16:46.749Z,8.70
2022-12-23T10:19:22.109Z,8.69
2022-12-23T10:21:55.761Z,8.61
2022-12-23T10:24:26.243Z,8.74
2022-12-23T10:26:57.096Z,7.84
2022-12-23T10:29:27.313Z,8.79
2022-12-23T10:32:07.882Z,8.84
2022-12-23T10:34:47.460Z,8.94
2022-12-23T10:37:29.407Z,8.98
2022-12-23T10:40:11.240Z,8.96
2022-12-23T10:42:47.405Z,8.97
2022-12-23T10:45:36.649Z,8.99
2022-12-23T10:48:23.758Z,8.98
2022-12-23T10:50:59.633Z,9.05
2022-12-23T10:53:38.482Z,8.94
2022-12-23T10:56:07.976Z,8.95
2022-12-23T10:58:42.402Z,8.99
2022-12-23T11:01:18.855Z,9.08
2022-12-23T11:04:08.567Z,9.03
2022-12-23T11:07:10.699Z,8.97
2022-12-23T11:09:45.534Z,8.52
2022-12-23T11:12:14.909Z,8.97
2022-12-23T11:14:51.578Z,8.97
2022-12-23T11:17:23.584Z,9.11
2022-12-23T11:20:13.230Z,9.05
2022-12-23T11:22:50.421Z,9.10
2022-12-23T11:25:36.728Z,9.06
2022-12-23T11:28:09.358Z,9.09
2022-12-23T11:30:53.467Z,9.07
2022-12-23T11:33:27.954Z,9.06
2022-12-23T11:36:06.181Z,9.05
2022-12-23T11:38:37.286Z,9.01
2022-12-23T11:41:07.384Z,9.08
2022-12-23T11:43:35.602Z,9.01
2022-12-23T11:46:26.751Z,9.04
2022-12-23T11:49:10.802Z,9.05
2022-12-23T11:51:39.051Z,9.08
2022-12-23T11:54:07.308Z,9.06
2022-12-23T11:56:39.438Z,9.19
2022-12-23T11:59:17.193Z,9.02
2022-12-23T12:01:49.460Z,9.13
2022-12-23T12:04:23.782Z,9.00
2022-12-23T12:06:56.578Z,9.05
2022-12-23T12:09:26.068Z,9.10
2022-12-23T12:12:04.441Z,9.06
2022-12-23T12:14:39.012Z,9.04
2022-12-23T12:17:18.225Z,9.05
2022-12-23T12:20:01.334Z,9.19
2022-12-23T12:22:39.042Z,9.12
2022-12-23T12:25:20.727Z,9.12
2022-12-23T12:27:57.526Z,9.16
2022-12-23T12:30:31.974Z,9.24
2022-12-23T12:33:08.269Z,9.12
2022-12-23T12:35:43.767Z,9.10
2022-12-23T12:38:22.090Z,7.45
2022-12-23T12:40:54.826Z,9.20
2022-12-23T12:43:31.421Z,9.19
2022-12-23T12:46:13.143Z,9.15
2022-12-23T12:48:50.153Z,9.22
2022-12-23T12:51:26.456Z,9.25
2022-12-23T12:54:06.183Z,9.26
2022-12-23T12:56:45.251Z,9.25
2022-12-23T12:59:19.483Z,9.27
2022-12-23T13:02:00.958Z,9.20
2022-12-23T13:05:28.778Z,9.15
2022-12-23T13:08:15.923Z,9.23
2022-12-23T13:10:49.388Z,9.26
2022-12-23T13:13:33.326Z,9.27
2022-12-23T13:16:12.378Z,9.28
2022-12-23T13:18:48.155Z,9.06
2022-12-23T13:21:24.082Z,9.15
2022-12-23T13:24:03.855Z,9.38
2022-12-23T13:26:39.949Z,9.33
2022-12-23T13:29:37.933Z,9.36
2022-12-23T13:32:28.790Z,9.26
2022-12-23T13:35:05.734Z,9.32
2022-12-23T13:37:41.979Z,9.38
2022-12-23T13:40:30.684Z,9.39
2022-12-23T13:43:05.913Z,9.33
2022-12-23T13:45:38.563Z,9.37
2022-12-23T13:48:29.168Z,9.35
2022-12-23T13:51:05.287Z,9.34
2022-12-23T13:53:51.107Z,9.40
2022-12-23T13:56:30.603Z,9.32
2022-12-23T13:58:59.269Z,9.27
2022-12-23T14:01:37.502Z,9.34
2022-12-23T14:07:21.143Z,9.39
2022-12-23T14:09:53.437Z,9.30
2022-12-23T14:12:28.073Z,9.11
2022-12-23T14:15:26.160Z,9.26
2022-12-23T14:18:11.042Z,9.35
2022-12-23T14:20:51.100Z,9.31
2022-12-23T14:23:36.835Z,9.21
2022-12-23T14:26:26.308Z,9.31
2022-12-23T14:29:14.195Z,8.58
2022-12-23T14:31:46.166Z,9.30
2022-12-23T14:34:30.487Z,9.34
2022-12-23T14:37:31.804Z,9.36
2022-12-23T14:40:56.330Z,9.38
2022-12-23T14:43:35.071Z,8.46
2022-12-23T14:46:05.887Z,9.38
2022-12-23T14:49:38.929Z,9.43
2022-12-23T14:52:48.274Z,9.45
2022-12-23T14:55:45.192Z,9.46
2022-12-23T14:58:39.770Z,9.05
2022-12-23T15:01:13.631Z,9.58
2022-12-23T15:03:59.240Z,9.46
2022-12-23T15:06:58.280Z,9.48
2022-12-23T15:09:29.464Z,9.60
2022-12-23T15:12:02.939Z,9.35
2022-12-23T15:14:36.572Z,9.46
2022-12-23T15:17:22.397Z,9.55
2022-12-23T15:19:50.633Z,9.59
2022-12-23T15:22:24.126Z,9.62
2022-12-23T15:24:53.696Z,9.47
2022-12-23T15:27:28.420Z,9.59
2022-12-23T15:29:58.158Z,9.59
2022-12-23T15:32:27.598Z,9.71
2022-12-23T15:35:04.279Z,9.74
2022-12-23T15:37:33.452Z,9.60
2022-12-23T15:40:13.168Z,9.72
2022-12-23T15:42:49.084Z,9.83
2022-12-23T15:45:35.075Z,9.76
2022-12-23T15:48:04.733Z,9.39
2022-12-23T15:50:40.407Z,9.81
2022-12-23T15:53:14.100Z,9.81
2022-12-23T15:55:42.410Z,9.90
2022-12-23T15:58:20.516Z,9.88
2022-12-23T16:00:54.896Z,9.78
2022-12-23T16:03:30.632Z,9.88
2022-12-23T16:06:10.075Z,9.81
2022-12-23T16:08:44.456Z,9.93
2022-12-23T16:11:17.118Z,9.98
2022-12-23T16:13:59.139Z,9.89
2022-12-23T16:16:39.396Z,9.92
2022-12-23T16:19:28.220Z,9.97
2022-12-23T16:21:56.472Z,10.13
2022-12-23T16:24:24.926Z,10.01
2022-12-23T16:26:56.314Z,10.07
2022-12-23T16:29:25.883Z,10.06
2022-12-23T16:32:01.707Z,10.11
2022-12-23T16:34:32.796Z,10.19
2022-12-23T16:37:00.972Z,10.20
2022-12-23T16:39:29.519Z,10.17
2022-12-23T16:41:58.006Z,10.23
2022-12-23T16:44:27.633Z,10.10
2022-12-23T16:46:55.861Z,10.19
2022-12-23T16:49:34.405Z,10.20
2022-12-23T16:52:04.260Z,10.22
2022-12-23T16:54:32.939Z,10.16
2022-12-23T16:57:01.256Z,10.12
2022-12-23T16:59:31.173Z,10.30
2022-12-23T17:02:03.517Z,10.31
2022-12-23T17:05:02.979Z,10.13
2022-12-23T17:07:31.176Z,10.26
2022-12-23T17:09:59.780Z,10.23
2022-12-23T17:12:28.308Z,10.40
2022-12-23T17:14:57.871Z,10.32
2022-12-23T17:17:26.321Z,10.22
2022-12-23T17:19:56.268Z,10.37
2022-12-23T17:22:24.927Z,10.34
2022-12-23T17:24:53.071Z,10.32
2022-12-23T17:27:21.688Z,10.34
2022-12-23T17:29:49.989Z,10.29
2022-12-23T17:32:20.452Z,10.42
2022-12-23T17:34:48.780Z,10.39
2022-12-23T17:37:19.441Z,10.45
2022-12-23T17:39:48.643Z,10.46
2022-12-23T17:42:24.890Z,10.49
2022-12-23T17:44:54.016Z,10.43
2022-12-23T17:47:23.754Z,10.53
2022-12-23T17:49:52.299Z,10.46
2022-12-23T17:52:23.862Z,10.47
2022-12-23T17:54:52.858Z,10.54
2022-12-23T17:57:23.837Z,10.41
2022-12-23T17:59:54.517Z,10.51
2022-12-23T18:02:32.886Z,10.61
2022-12-23T18:05:01.836Z,10.54
2022-12-23T18:07:30.092Z,10.67
2022-12-23T18:09:58.305Z,10.64
2022-12-23T18:12:37.639Z,10.68
2022-12-23T18:15:08.093Z,10.39
2022-12-23T18:17:37.632Z,10.69
2022-12-23T18:20:07.175Z,10.65
2022-12-23T18:22:35.399Z,10.79
2022-12-23T18:25:04.263Z,10.88
2022-12-23T18:27:32.442Z,10.62
2022-12-23T18:30:00.680Z,10.65
2022-12-23T18:32:29.698Z,10.76
2022-12-23T18:34:59.309Z,10.62
2022-12-23T18:37:27.725Z,10.73
2022-12-23T18:39:55.955Z,10.61
2022-12-23T18:42:24.162Z,10.72
2022-12-23T18:44:52.432Z,10.72
2022-12-23T18:47:20.690Z,10.69
2022-12-23T18:49:48.946Z,10.78
2022-12-23T18:52:18.522Z,10.69
2022-12-23T18:54:46.739Z,10.65
2022-12-23T18:57:15.001Z,10.70
2022-12-23T18:59:43.193Z,10.72
2022-12-23T19:02:15.246Z,10.51
2022-12-23T19:04:43.968Z,10.55
2022-12-23T19:07:13.224Z,10.56
2022-12-23T19:09:42.809Z,10.49
2022-12-23T19:12:11.001Z,10.65
2022-12-23T19:14:40.172Z,10.54
2022-12-23T19:17:08.452Z,10.58
2022-12-23T19:19:36.618Z,10.57
2022-12-23T19:22:04.814Z,10.51
2022-12-23T19:24:33.042Z,10.59
2022-12-23T19:27:02.596Z,10.49
2022-12-23T19:29:30.765Z,10.47
2022-12-23T19:31:58.947Z,10.52
2022-12-23T19:34:27.203Z,10.60
2022-12-23T19:36:55.790Z,10.47
2022-12-23T19:39:24.107Z,10.46
2022-12-23T19:41:52.263Z,10.45
2022-12-23T19:44:21.836Z,10.50
2022-12-23T19:46:50.338Z,10.56
2022-12-23T19:49:20.329Z,10.49
2022-12-23T19:51:49.506Z,10.50
2022-12-23T19:54:19.685Z,10.48
2022-12-23T19:56:51.222Z,10.49
2022-12-23T19:59:20.863Z,10.51
2022-12-23T20:01:49.465Z,10.54
2022-12-23T20:04:18.335Z,10.47
2022-12-23T20:06:46.610Z,10.43
2022-12-23T20:09:15.399Z,10.40
2022-12-23T20:11:46.057Z,10.49
2022-12-23T20:14:17.346Z,10.47
2022-12-23T20:16:48.391Z,10.36
2022-12-23T20:19:16.804Z,10.39
2022-12-23T20:21:46.377Z,10.42
2022-12-23T20:24:15.725Z,10.33
2022-12-23T20:26:44.055Z,10.40
2022-12-23T20:29:12.451Z,10.43
2022-12-23T20:31:41.360Z,9.69
2022-12-23T20:34:16.987Z,10.28
2022-12-23T20:36:45.356Z,10.41
2022-12-23T20:39:14.010Z,10.29
2022-12-23T20:41:42.545Z,10.19
2022-12-23T20:46:59.400Z,10.16
2022-12-23T20:49:28.922Z,10.19
2022-12-23T20:51:57.098Z,10.22
2022-12-23T20:54:32.239Z,10.03
2022-12-23T20:57:02.602Z,10.05
2022-12-23T20:59:30.964Z,10.10
2022-12-23T21:01:59.641Z,10.05
2022-12-23T21:04:54.726Z,10.06
2022-12-23T21:07:23.074Z,10.07
2022-12-23T21:09:51.377Z,10.01
2022-12-23T21:12:19.665Z,10.03
2022-12-23T21:14:47.825Z,10.00
2022-12-23T21:17:15.974Z,10.08
2022-12-23T21:19:44.189Z,10.05
2022-12-23T21:22:13.806Z,10.10
2022-12-23T21:24:41.997Z,10.05
2022-12-23T21:27:10.205Z,10.01
2022-12-23T21:29:39.038Z,10.06
2022-12-23T21:32:07.319Z,10.01
2022-12-23T21:34:35.625Z,9.94
2022-12-23T21:37:03.895Z,9.91
2022-12-23T21:39:33.628Z,10.03
2022-12-23T21:42:06.322Z,9.94
2022-12-23T21:44:34.906Z,9.86
2022-12-23T21:47:03.168Z,9.84
2022-12-23T21:49:31.424Z,9.80
2022-12-23T21:51:59.721Z,9.79
2022-12-23T21:54:27.932Z,9.86
2022-12-23T21:56:57.527Z,9.81
2022-12-23T21:59:31.119Z,9.88
2022-12-23T22:02:02.922Z,9.85
2022-12-23T22:04:31.133Z,9.80
2022-12-23T22:06:59.269Z,9.74
2022-12-23T22:09:27.455Z,9.79
2022-12-23T22:11:59.362Z,9.77
2022-12-23T22:14:27.587Z,9.73
2022-12-23T22:16:55.892Z,9.79
2022-12-23T22:19:24.092Z,9.70
2022-12-23T22:21:52.260Z,9.68
2022-12-23T22:24:20.527Z,9.66
2022-12-23T22:26:48.785Z,9.70
2022-12-23T22:29:18.758Z,9.65
2022-12-23T22:31:49.487Z,9.63
2022-12-23T22:34:20.703Z,9.57
2022-12-23T22:36:49.507Z,8.47
2022-12-23T22:39:21.842Z,9.28
2022-12-23T22:41:50.999Z,9.17
2022-12-23T22:44:21.794Z,9.06
2022-12-23T22:46:50.379Z,9.07
2022-12-23T22:49:19.168Z,8.89
2022-12-23T22:51:47.439Z,9.00
2022-12-23T22:54:15.740Z,8.93
2022-12-23T22:56:44.151Z,8.53
2022-12-23T22:59:22.619Z,8.88
2022-12-23T23:01:52.693Z,7.81
2022-12-23T23:04:27.234Z,8.77
2022-12-23T23:06:55.496Z,8.81
2022-12-23T23:09:24.090Z,8.81
2022-12-23T23:11:52.650Z,8.83
2022-12-23T23:14:22.748Z,8.82
2022-12-23T23:16:51.104Z,8.82
2022-12-23T23:19:20.611Z,8.60
2022-12-23T23:21:49.157Z,8.62
2022-12-23T23:24:17.544Z,8.58
2022-12-23T23:26:45.744Z,8.54
2022-12-23T23:29:14.316Z,8.43
2022-12-23T23:31:44.796Z,8.58
2022-12-23T23:34:13.853Z,8.51
2022-12-23T23:36:42.741Z,8.25
2022-12-23T23:39:13.651Z,8.51
2022-12-23T23:41:42.179Z,8.31
2022-12-23T23:44:11.505Z,8.23
2022-12-23T23:46:40.161Z,8.29
2022-12-23T23:49:09.881Z,8.24
2022-12-23T23:51:38.210Z,8.22
2022-12-23T23:54:06.680Z,8.32
2022-12-23T23:56:38.713Z,8.25
2022-12-23T23:59:08.066Z,8.22
